Time;durP1;ratioP1;P1;durP2;ratioP2;P2;SDS_P1;SDS_P2;PMS_P1;PMS_P2;Temp;Humidity;BMP_temperature;BMP_pressure;BME280_temperature;BME280_humidity;BME280_pressure;Samples;Min_cycle;Max_cycle;Signal;HPM_P1;HPM_P2
2023/06/12 00:02:17;;;;;;;;;;;27.90;41.60;;;;;;5062268;28;19928;-55
2023/06/12 00:04:44;;;;;;;;;;;27.90;41.60;;;;;;5061576;28;19970;-55
2023/06/12 00:07:13;;;;;;;;;;;27.90;41.70;;;;;;5055295;28;19913;-55
2023/06/12 00:09:38;;;;;;;;;;;27.90;41.60;;;;;;5056608;28;19962;-54
2023/06/12 00:12:04;;;;;;;;;;;27.80;41.60;;;;;;5068609;28;19920;-54
2023/06/12 00:14:30;;;;;;;;;;;27.80;41.60;;;;;;5052858;28;19913;-53
2023/06/12 00:16:55;;;;;;;;;;;27.80;41.60;;;;;;5065405;28;19917;-54
2023/06/12 00:19:20;;;;;;;;;;;27.80;41.60;;;;;;5072963;28;19982;-53
2023/06/12 00:21:46;;;;;;;;;;;27.80;41.70;;;;;;5073120;28;19908;-55
2023/06/12 00:24:11;;;;;;;;;;;27.80;41.70;;;;;;5063134;28;19913;-55
2023/06/12 00:26:40;;;;;;;;;;;27.80;41.60;;;;;;5052584;28;20050;-54
2023/06/12 00:29:05;;;;;;;;;;;27.80;41.70;;;;;;5053676;28;20380;-53
2023/06/12 00:31:30;;;;;;;;;;;27.80;41.70;;;;;;5052789;28;20009;-53
2023/06/12 00:33:56;;;;;;;;;;;27.80;41.70;;;;;;5069797;28;19927;-53
2023/06/12 00:36:22;;;;;;;;;;;27.80;41.60;;;;;;5052693;28;20450;-53
2023/06/12 00:38:47;;;;;;;;;;;27.70;41.60;;;;;;5068400;28;19912;-55
2023/06/12 00:41:13;;;;;;;;;;;27.70;41.60;;;;;;5062774;28;20328;-55
2023/06/12 00:43:38;;;;;;;;;;;27.70;41.60;;;;;;5056140;28;19921;-55
2023/06/12 00:46:04;;;;;;;;;;;27.80;41.70;;;;;;5052452;28;19959;-55
2023/06/12 00:48:30;;;;;;;;;;;27.70;41.60;;;;;;5061012;28;19962;-55
2023/06/12 00:50:56;;;;;;;;;;;27.70;41.60;;;;;;5067368;28;19920;-55
2023/06/12 00:53:21;;;;;;;;;;;27.70;41.50;;;;;;5104959;28;20330;-56
2023/06/12 00:55:47;;;;;;;;;;;27.70;41.70;;;;;;5071066;28;19912;-55
2023/06/12 00:58:12;;;;;;;;;;;27.70;41.60;;;;;;5063393;28;19913;-55
2023/06/12 01:00:38;;;;;;;;;;;27.70;41.60;;;;;;5062878;28;19913;-54
2023/06/12 01:03:04;;;;;;;;;;;27.70;41.60;;;;;;5054043;28;19923;-54
2023/06/12 01:05:33;;;;;;;;;;;27.70;41.60;;;;;;5085923;28;19908;-55
2023/06/12 01:08:17;;;;;;;;;;;27.70;41.60;;;;;;5070855;28;19969;-55
2023/06/12 01:10:47;;;;;;;;;;;27.60;41.60;;;;;;5070733;28;19912;-55
2023/06/12 01:13:13;;;;;;;;;;;27.60;41.60;;;;;;5058229;28;19913;-55
2023/06/12 01:15:38;;;;;;;;;;;27.60;41.60;;;;;;5051643;28;19970;-55
2023/06/12 01:18:07;;;;;;;;;;;27.60;41.60;;;;;;5056804;28;20032;-55
2023/06/12 01:20:33;;;;;;;;;;;27.60;41.60;;;;;;5068092;28;19919;-55
2023/06/12 01:23:00;;;;;;;;;;;27.60;41.60;;;;;;5072222;28;19920;-55
2023/06/12 01:25:32;;;;;;;;;;;27.60;41.70;;;;;;5070440;28;19912;-55
2023/06/12 01:28:08;;;;;;;;;;;27.60;41.60;;;;;;5060037;28;19915;-55
2023/06/12 01:30:54;;;;;;;;;;;27.50;41.60;;;;;;5070622;28;19946;-55
2023/06/12 01:33:20;;;;;;;;;;;27.60;41.60;;;;;;5059041;28;19916;-54
2023/06/12 01:35:46;;;;;;;;;;;27.50;41.50;;;;;;5071776;28;19931;-55
2023/06/12 01:38:20;;;;;;;;;;;27.50;41.60;;;;;;5057725;28;19913;-55
2023/06/12 01:40:49;;;;;;;;;;;27.50;41.50;;;;;;5091451;28;19909;-55
2023/06/12 01:43:15;;;;;;;;;;;27.50;41.70;;;;;;5050309;28;19925;-55
2023/06/12 01:45:40;;;;;;;;;;;27.50;41.60;;;;;;5069590;28;19919;-55
2023/06/12 01:48:06;;;;;;;;;;;27.50;41.60;;;;;;5071146;28;19909;-54
2023/06/12 01:50:31;;;;;;;;;;;27.50;41.60;;;;;;5088157;28;20383;-55
2023/06/12 01:52:57;;;;;;;;;;;27.50;42.30;;;;;;5063066;28;20255;-55
2023/06/12 01:55:22;;;;;;;;;;;27.50;41.60;;;;;;5054864;28;19912;-54
2023/06/12 01:57:50;;;;;;;;;;;27.40;41.60;;;;;;5070217;28;19923;-55
2023/06/12 02:00:17;;;;;;;;;;;27.50;41.60;;;;;;5063167;28;20376;-56
2023/06/12 02:02:45;;;;;;;;;;;27.40;41.60;;;;;;5065499;28;19916;-55
2023/06/12 02:05:10;;;;;;;;;;;27.40;41.60;;;;;;5101152;28;19908;-55
2023/06/12 02:07:36;;;;;;;;;;;27.40;41.50;;;;;;5068738;28;19912;-55
2023/06/12 02:10:02;;;;;;;;;;;27.40;41.60;;;;;;5067034;28;19957;-55
2023/06/12 02:12:29;;;;;;;;;;;27.40;41.50;;;;;;5060255;28;19921;-55
2023/06/12 02:14:57;;;;;;;;;;;27.40;41.50;;;;;;5054878;28;19916;-55
2023/06/12 02:17:22;;;;;;;;;;;27.40;41.50;;;;;;5066715;28;19912;-55
2023/06/12 02:19:48;;;;;;;;;;;27.40;41.60;;;;;;5073509;28;20627;-55
2023/06/12 02:22:13;;;;;;;;;;;27.40;41.60;;;;;;5068405;28;19917;-54
2023/06/12 02:24:39;;;;;;;;;;;27.40;41.60;;;;;;5054120;28;19913;-55
2023/06/12 02:27:05;;;;;;;;;;;27.40;41.60;;;;;;5078690;28;20418;-55
2023/06/12 02:29:30;;;;;;;;;;;27.40;41.60;;;;;;5067070;28;19919;-55
2023/06/12 02:31:55;;;;;;;;;;;27.40;41.50;;;;;;5058400;28;20004;-55
2023/06/12 02:34:21;;;;;;;;;;;27.30;41.40;;;;;;5065329;28;20244;-54
2023/06/12 02:36:46;;;;;;;;;;;27.30;41.50;;;;;;5056948;28;19919;-55
2023/06/12 02:39:15;;;;;;;;;;;27.40;41.50;;;;;;5054838;28;19912;-54
2023/06/12 02:41:41;;;;;;;;;;;27.40;41.50;;;;;;5064489;28;20353;-54
2023/06/12 02:44:06;;;;;;;;;;;27.30;41.50;;;;;;5060860;28;20011;-55
2023/06/12 02:46:32;;;;;;;;;;;27.30;41.50;;;;;;5057974;28;19912;-55
2023/06/12 02:48:57;;;;;;;;;;;27.30;41.40;;;;;;5070661;28;19908;-55
2023/06/12 02:51:23;;;;;;;;;;;27.30;41.50;;;;;;5073257;28;19920;-55
2023/06/12 02:53:48;;;;;;;;;;;27.30;41.50;;;;;;5074663;28;19913;-55
2023/06/12 02:56:14;;;;;;;;;;;27.30;41.50;;;;;;5058661;28;19920;-55
2023/06/12 02:58:40;;;;;;;;;;;27.20;41.40;;;;;;5053464;28;20351;-55
2023/06/12 03:01:06;;;;;;;;;;;27.20;41.40;;;;;;5058791;28;20260;-55
2023/06/12 03:03:32;;;;;;;;;;;27.20;41.40;;;;;;5065222;28;19996;-55
2023/06/12 03:05:57;;;;;;;;;;;27.20;41.40;;;;;;5055723;28;20008;-54
2023/06/12 03:08:23;;;;;;;;;;;27.20;41.40;;;;;;5103137;28;19923;-55
2023/06/12 03:10:48;;;;;;;;;;;27.20;41.40;;;;;;5072267;28;20331;-55
2023/06/12 03:13:14;;;;;;;;;;;27.20;41.40;;;;;;5086426;28;19943;-55
2023/06/12 03:15:39;;;;;;;;;;;27.20;41.40;;;;;;5054527;28;20019;-54
2023/06/12 03:18:05;;;;;;;;;;;27.20;41.40;;;;;;5090406;28;20278;-55
2023/06/12 03:20:33;;;;;;;;;;;27.20;41.50;;;;;;5066341;28;20403;-54
2023/06/12 03:23:01;;;;;;;;;;;27.20;41.40;;;;;;5069900;28;19916;-55
2023/06/12 03:25:27;;;;;;;;;;;27.20;41.40;;;;;;5059560;28;20391;-55
2023/06/12 03:27:52;;;;;;;;;;;27.10;41.40;;;;;;5072695;28;19977;-55
2023/06/12 03:30:18;;;;;;;;;;;27.10;41.40;;;;;;5063950;28;19921;-54
2023/06/12 03:32:43;;;;;;;;;;;27.10;41.30;;;;;;5065024;28;19916;-55
2023/06/12 03:35:09;;;;;;;;;;;27.10;41.30;;;;;;5074502;28;19967;-55
2023/06/12 03:37:34;;;;;;;;;;;27.10;41.40;;;;;;5058009;28;19980;-55
2023/06/12 03:39:59;;;;;;;;;;;27.10;41.30;;;;;;5052720;28;19909;-55
2023/06/12 03:42:25;;;;;;;;;;;27.10;41.30;;;;;;5059700;28;19908;-55
2023/06/12 03:44:50;;;;;;;;;;;27.10;41.30;;;;;;5070692;28;19966;-55
2023/06/12 03:47:16;;;;;;;;;;;27.10;41.40;;;;;;5073410;28;19919;-55
2023/06/12 03:49:42;;;;;;;;;;;27.10;41.40;;;;;;5054417;28;19982;-54
2023/06/12 03:52:07;;;;;;;;;;;27.10;41.40;;;;;;5053283;28;19913;-55
2023/06/12 03:54:33;;;;;;;;;;;27.10;41.40;;;;;;5067370;28;20405;-55
2023/06/12 03:56:58;;;;;;;;;;;27.10;41.40;;;;;;5063295;28;20354;-55
2023/06/12 03:59:23;;;;;;;;;;;27.10;41.40;;;;;;5066110;28;19916;-55
2023/06/12 04:01:49;;;;;;;;;;;27.10;41.40;;;;;;5062034;28;19921;-55
2023/06/12 04:04:15;;;;;;;;;;;27.10;41.40;;;;;;5095111;28;19916;-55
2023/06/12 04:06:40;;;;;;;;;;;27.00;41.40;;;;;;5070335;28;19955;-54
2023/06/12 04:09:09;;;;;;;;;;;27.10;41.40;;;;;;5065900;28;19916;-55
2023/06/12 04:11:35;;;;;;;;;;;27.10;41.40;;;;;;5058420;28;19920;-55
2023/06/12 04:14:01;;;;;;;;;;;27.10;41.30;;;;;;5054979;28;19916;-55
2023/06/12 04:16:27;;;;;;;;;;;27.00;41.30;;;;;;5066666;28;19951;-55
2023/06/12 04:18:52;;;;;;;;;;;27.00;41.30;;;;;;5061157;28;19912;-56
2023/06/12 04:21:20;;;;;;;;;;;27.00;41.30;;;;;;5052551;28;19928;-54
2023/06/12 04:23:47;;;;;;;;;;;27.00;41.30;;;;;;5052674;28;19920;-55
2023/06/12 04:26:14;;;;;;;;;;;27.00;41.30;;;;;;5056296;28;20369;-55
2023/06/12 04:28:41;;;;;;;;;;;27.00;41.30;;;;;;5066777;28;20012;-55
2023/06/12 04:31:06;;;;;;;;;;;27.00;41.30;;;;;;5059151;28;19913;-55
2023/06/12 04:33:35;;;;;;;;;;;27.00;41.30;;;;;;5068734;28;19934;-55
2023/06/12 04:36:02;;;;;;;;;;;27.00;41.30;;;;;;5051855;28;19920;-55
2023/06/12 04:38:30;;;;;;;;;;;27.00;41.30;;;;;;5068558;28;19915;-55
2023/06/12 04:40:56;;;;;;;;;;;26.90;41.20;;;;;;5070560;28;19954;-55
2023/06/12 04:43:23;;;;;;;;;;;26.90;41.30;;;;;;5072191;28;19964;-55
2023/06/12 04:45:49;;;;;;;;;;;27.00;41.20;;;;;;5068768;28;19917;-54
2023/06/12 04:48:15;;;;;;;;;;;27.00;41.30;;;;;;5055294;28;19939;-55
2023/06/12 04:50:40;;;;;;;;;;;26.90;41.30;;;;;;5051790;28;19916;-55
2023/06/12 04:53:06;;;;;;;;;;;26.90;41.30;;;;;;5066944;28;19923;-55
2023/06/12 04:55:31;;;;;;;;;;;26.90;41.30;;;;;;5070510;28;19999;-55
2023/06/12 04:57:58;;;;;;;;;;;26.90;41.20;;;;;;5082350;28;19917;-55
2023/06/12 05:00:23;;;;;;;;;;;26.90;41.30;;;;;;5059006;28;20007;-55
2023/06/12 05:02:49;;;;;;;;;;;26.80;41.20;;;;;;5074665;28;20436;-55
2023/06/12 05:05:15;;;;;;;;;;;26.80;41.20;;;;;;5051409;28;20365;-55
2023/06/12 05:07:45;;;;;;;;;;;26.80;41.20;;;;;;5065763;28;20278;-56
2023/06/12 05:10:10;;;;;;;;;;;26.90;41.30;;;;;;5070276;28;19916;-56
2023/06/12 05:12:36;;;;;;;;;;;26.90;41.30;;;;;;5069775;28;19931;-55
2023/06/12 05:15:02;;;;;;;;;;;26.90;41.30;;;;;;5104294;28;19916;-56
2023/06/12 05:17:27;;;;;;;;;;;26.90;41.30;;;;;;5051833;28;19917;-56
2023/06/12 05:19:53;;;;;;;;;;;26.90;41.20;;;;;;5051603;28;19978;-55
2023/06/12 05:22:18;;;;;;;;;;;26.90;41.30;;;;;;5063150;28;19921;-56
2023/06/12 05:24:43;;;;;;;;;;;26.80;41.20;;;;;;5054012;28;19979;-54
2023/06/12 05:27:10;;;;;;;;;;;26.90;41.30;;;;;;5059785;28;19912;-54
2023/06/12 05:29:35;;;;;;;;;;;26.90;41.20;;;;;;5070407;28;19916;-53
2023/06/12 05:32:01;;;;;;;;;;;26.90;41.30;;;;;;5072062;28;19962;-53
2023/06/12 05:34:26;;;;;;;;;;;26.90;41.30;;;;;;5051737;28;19909;-54
2023/06/12 05:36:54;;;;;;;;;;;26.90;41.40;;;;;;5069346;28;19916;-54
2023/06/12 05:39:19;;;;;;;;;;;26.80;41.20;;;;;;5093094;28;19916;-54
2023/06/12 05:41:45;;;;;;;;;;;26.80;41.30;;;;;;5075537;28;20022;-54
2023/06/12 05:44:10;;;;;;;;;;;26.90;41.20;;;;;;5064480;28;20376;-54
2023/06/12 05:46:36;;;;;;;;;;;26.80;41.20;;;;;;5075532;28;19991;-54
2023/06/12 05:49:01;;;;;;;;;;;26.80;41.20;;;;;;5075769;28;20014;-54
2023/06/12 05:51:27;;;;;;;;;;;26.80;41.30;;;;;;5075585;28;19912;-53
2023/06/12 05:53:53;;;;;;;;;;;26.80;41.30;;;;;;5056421;28;19955;-53
2023/06/12 05:56:18;;;;;;;;;;;26.80;41.20;;;;;;5056961;28;19926;-54
2023/06/12 05:58:44;;;;;;;;;;;26.80;41.30;;;;;;5056701;28;19928;-54
2023/06/12 06:01:11;;;;;;;;;;;26.80;41.30;;;;;;5060776;28;19919;-54
2023/06/12 06:03:42;;;;;;;;;;;26.80;41.30;;;;;;5059801;28;19912;-53
2023/06/12 06:06:08;;;;;;;;;;;26.80;41.20;;;;;;5060044;28;19920;-54
2023/06/12 06:08:33;;;;;;;;;;;26.80;41.20;;;;;;5064604;28;19917;-53
2023/06/12 06:10:59;;;;;;;;;;;26.80;41.20;;;;;;5073125;28;19951;-54
2023/06/12 06:13:24;;;;;;;;;;;26.80;41.10;;;;;;5075098;28;19970;-54
2023/06/12 06:15:50;;;;;;;;;;;26.80;41.10;;;;;;5072986;28;19917;-54
2023/06/12 06:18:15;;;;;;;;;;;26.90;41.10;;;;;;5057604;28;19909;-54
2023/06/12 06:20:41;;;;;;;;;;;26.80;41.10;;;;;;5053466;28;20288;-53
2023/06/12 06:23:07;;;;;;;;;;;26.90;41.10;;;;;;5060315;28;19982;-53
2023/06/12 06:25:32;;;;;;;;;;;26.80;41.10;;;;;;5056042;28;20388;-54
2023/06/12 06:27:58;;;;;;;;;;;26.80;40.90;;;;;;5058927;28;20385;-54
2023/06/12 06:30:23;;;;;;;;;;;26.80;40.90;;;;;;5059973;28;19926;-54
2023/06/12 06:32:50;;;;;;;;;;;26.80;41.10;;;;;;5060295;28;19966;-54
2023/06/12 06:35:15;;;;;;;;;;;26.80;40.90;;;;;;5054367;28;20395;-54
2023/06/12 06:37:41;;;;;;;;;;;26.80;41.00;;;;;;5071759;28;19912;-54
2023/06/12 06:40:06;;;;;;;;;;;26.90;41.10;;;;;;5088818;28;19913;-54
2023/06/12 06:42:32;;;;;;;;;;;26.80;40.80;;;;;;5054128;28;20292;-53
2023/06/12 06:44:57;;;;;;;;;;;26.80;40.80;;;;;;5057466;28;19921;-54
2023/06/12 06:47:23;;;;;;;;;;;26.80;40.70;;;;;;5056566;28;19915;-54
2023/06/12 06:49:49;;;;;;;;;;;26.80;40.60;;;;;;5054570;28;19912;-54
2023/06/12 06:52:17;;;;;;;;;;;26.80;40.80;;;;;;5067959;28;19920;-54
2023/06/12 06:54:42;;;;;;;;;;;26.80;40.60;;;;;;5073373;28;19962;-54
2023/06/12 06:57:10;;;;;;;;;;;26.80;40.60;;;;;;5089970;28;20353;-53
2023/06/12 06:59:36;;;;;;;;;;;26.80;40.80;;;;;;5057290;28;20439;-53
2023/06/12 07:02:02;;;;;;;;;;;26.80;40.70;;;;;;5066172;28;20365;-53
2023/06/12 07:04:27;;;;;;;;;;;26.80;40.70;;;;;;5068680;28;19912;-54
2023/06/12 07:06:53;;;;;;;;;;;26.80;40.70;;;;;;5071954;28;20479;-54
2023/06/12 07:09:18;;;;;;;;;;;26.80;40.90;;;;;;5070160;28;20296;-53
2023/06/12 07:11:44;;;;;;;;;;;26.80;40.60;;;;;;5058497;28;19995;-53
2023/06/12 07:14:09;;;;;;;;;;;26.80;40.50;;;;;;5055806;28;20388;-53
2023/06/12 07:16:35;;;;;;;;;;;26.80;40.50;;;;;;5067411;28;19920;-54
2023/06/12 07:19:00;;;;;;;;;;;26.80;40.30;;;;;;5088185;28;19970;-53
2023/06/12 07:21:26;;;;;;;;;;;26.80;40.50;;;;;;5056558;28;19913;-54
2023/06/12 07:23:52;;;;;;;;;;;26.80;40.00;;;;;;5072796;28;20292;-54
2023/06/12 07:26:17;;;;;;;;;;;26.70;40.00;;;;;;5060281;28;19909;-54
2023/06/12 07:28:43;;;;;;;;;;;26.80;40.10;;;;;;5073653;28;19995;-54
2023/06/12 07:31:08;;;;;;;;;;;26.80;40.00;;;;;;5071981;28;19917;-54
2023/06/12 07:33:34;;;;;;;;;;;26.80;39.80;;;;;;5062103;28;19913;-53
2023/06/12 07:35:59;;;;;;;;;;;26.90;40.00;;;;;;5056002;28;19982;-53
2023/06/12 07:38:25;;;;;;;;;;;26.80;39.90;;;;;;5055847;28;19966;-54
2023/06/12 07:40:50;;;;;;;;;;;26.80;40.10;;;;;;5072631;28;19908;-54
2023/06/12 07:43:16;;;;;;;;;;;26.80;39.70;;;;;;5099674;28;19970;-54
2023/06/12 07:45:41;;;;;;;;;;;26.80;39.70;;;;;;5062109;28;19913;-54
2023/06/12 07:48:07;;;;;;;;;;;26.80;39.70;;;;;;5068759;28;19955;-53
2023/06/12 07:50:32;;;;;;;;;;;26.80;39.50;;;;;;5053471;28;20007;-54
2023/06/12 07:52:58;;;;;;;;;;;26.80;39.70;;;;;;5065012;28;19921;-53
2023/06/12 07:55:23;;;;;;;;;;;26.80;39.50;;;;;;5060636;28;19923;-53
2023/06/12 07:57:50;;;;;;;;;;;26.80;39.40;;;;;;5061798;28;19958;-54
2023/06/12 08:00:15;;;;;;;;;;;26.80;39.20;;;;;;5059396;28;20019;-54
2023/06/12 08:02:41;;;;;;;;;;;26.80;39.30;;;;;;5094939;28;19995;-53
2023/06/12 08:05:07;;;;;;;;;;;26.80;39.30;;;;;;5069564;28;19912;-54
2023/06/12 08:07:33;;;;;;;;;;;26.80;39.60;;;;;;5066468;28;20355;-54
2023/06/12 08:09:58;;;;;;;;;;;26.90;39.20;;;;;;5071793;28;20035;-53
2023/06/12 08:12:24;;;;;;;;;;;26.90;39.40;;;;;;5057261;28;20003;-53
2023/06/12 08:14:51;;;;;;;;;;;26.80;38.80;;;;;;5056178;28;19913;-54
2023/06/12 08:17:17;;;;;;;;;;;26.90;39.10;;;;;;5063978;28;19947;-53
2023/06/12 08:19:43;;;;;;;;;;;26.80;39.20;;;;;;5072581;28;20147;-53
2023/06/12 08:22:09;;;;;;;;;;;26.90;39.30;;;;;;5071763;28;19970;-54
2023/06/12 08:24:35;;;;;;;;;;;26.80;38.90;;;;;;5071803;28;20082;-53
2023/06/12 08:27:01;;;;;;;;;;;26.90;38.80;;;;;;5085770;28;20293;-53
2023/06/12 08:29:26;;;;;;;;;;;26.90;38.80;;;;;;5063608;28;19919;-53
2023/06/12 08:31:52;;;;;;;;;;;26.90;38.80;;;;;;5071084;28;19923;-53
2023/06/12 08:34:24;;;;;;;;;;;26.90;38.80;;;;;;5053848;28;19962;-53
2023/06/12 08:36:50;;;;;;;;;;;26.90;38.80;;;;;;5052208;28;20391;-53
2023/06/12 08:39:15;;;;;;;;;;;26.90;38.80;;;;;;5064538;28;19917;-53
2023/06/12 08:41:42;;;;;;;;;;;26.90;38.80;;;;;;5051323;28;19920;-53
2023/06/12 08:44:08;;;;;;;;;;;26.90;38.80;;;;;;5052629;28;19921;-53
2023/06/12 08:46:33;;;;;;;;;;;26.90;38.80;;;;;;5101399;28;19923;-53
2023/06/12 08:49:00;;;;;;;;;;;27.00;38.90;;;;;;5088362;28;20373;-53
2023/06/12 08:51:26;;;;;;;;;;;27.00;38.90;;;;;;5051516;28;20015;-53
2023/06/12 08:53:52;;;;;;;;;;;27.00;38.50;;;;;;5052315;28;19940;-53
2023/06/12 08:56:17;;;;;;;;;;;27.00;38.70;;;;;;5058835;28;19912;-53
2023/06/12 08:58:42;;;;;;;;;;;27.00;39.00;;;;;;5053109;28;19999;-53
2023/06/12 09:01:08;;;;;;;;;;;27.00;38.70;;;;;;5067206;28;19920;-53
2023/06/12 09:03:35;;;;;;;;;;;27.10;38.80;;;;;;5067843;28;20365;-53
2023/06/12 09:06:05;;;;;;;;;;;27.10;38.90;;;;;;5055278;28;19913;-53
2023/06/12 09:08:30;;;;;;;;;;;27.10;38.30;;;;;;5069175;28;20344;-53
2023/06/12 09:10:57;;;;;;;;;;;27.10;38.70;;;;;;5068659;28;19912;-53
2023/06/12 09:13:22;;;;;;;;;;;27.10;38.70;;;;;;5103433;28;19916;-53
2023/06/12 09:15:51;;;;;;;;;;;27.20;38.10;;;;;;5053451;28;19919;-53
2023/06/12 09:18:17;;;;;;;;;;;27.20;38.00;;;;;;5063597;28;20379;-53
2023/06/12 09:20:43;;;;;;;;;;;27.20;37.90;;;;;;5069549;28;19927;-52
2023/06/12 09:23:09;;;;;;;;;;;27.20;37.70;;;;;;5096593;28;19917;-53
2023/06/12 09:25:41;;;;;;;;;;;27.30;38.50;;;;;;5086250;28;19913;-53
2023/06/12 09:28:08;;;;;;;;;;;27.30;38.20;;;;;;5065349;28;19915;-53
2023/06/12 09:30:37;;;;;;;;;;;27.30;38.30;;;;;;5070127;28;19955;-53
2023/06/12 09:33:03;;;;;;;;;;;27.30;37.40;;;;;;5067254;28;19923;-53
2023/06/12 09:35:28;;;;;;;;;;;27.30;38.10;;;;;;5083798;28;20289;-54
2023/06/12 09:37:55;;;;;;;;;;;27.40;37.40;;;;;;5051770;28;19959;-53
2023/06/12 09:40:21;;;;;;;;;;;27.40;37.00;;;;;;5066159;28;19916;-53
2023/06/12 09:42:46;;;;;;;;;;;27.30;38.00;;;;;;5052261;28;20292;-53
2023/06/12 09:45:12;;;;;;;;;;;27.40;37.40;;;;;;5058588;28;19963;-53
2023/06/12 09:47:47;;;;;;;;;;;27.40;36.60;;;;;;5034062;28;19959;-53
2023/06/12 09:50:17;;;;;;;;;;;27.40;36.80;;;;;;5051906;28;19913;-53
2023/06/12 09:52:43;;;;;;;;;;;27.40;36.20;;;;;;5058492;28;19920;-53
2023/06/12 09:55:15;;;;;;;;;;;27.40;36.50;;;;;;5070345;28;20384;-53
2023/06/12 09:57:50;;;;;;;;;;;27.40;37.10;;;;;;5053962;28;19916;-53
2023/06/12 10:00:16;;;;;;;;;;;27.50;35.40;;;;;;5090239;28;19919;-53
2023/06/12 10:02:47;;;;;;;;;;;27.50;35.10;;;;;;5063255;28;19924;-53
2023/06/12 10:05:23;;;;;;;;;;;27.50;35.90;;;;;;5062579;28;20010;-53
2023/06/12 10:07:52;;;;;;;;;;;27.50;35.90;;;;;;5066263;28;20365;-53
2023/06/12 10:10:19;;;;;;;;;;;27.60;35.00;;;;;;5101878;28;20003;-53
2023/06/12 10:12:44;;;;;;;;;;;27.60;35.10;;;;;;5050410;28;19921;-53
2023/06/12 10:15:10;;;;;;;;;;;27.60;34.40;;;;;;5049941;28;19970;-53
2023/06/12 10:17:35;;;;;;;;;;;27.60;34.30;;;;;;5097815;28;19922;-53
2023/06/12 10:20:02;;;;;;;;;;;27.50;34.80;;;;;;5068846;28;19931;-53
2023/06/12 10:22:28;;;;;;;;;;;27.60;34.70;;;;;;5100222;28;20292;-53
2023/06/12 10:24:55;;;;;;;;;;;27.60;35.30;;;;;;5072105;28;19913;-53
2023/06/12 10:27:20;;;;;;;;;;;27.70;34.50;;;;;;5089230;28;19912;-53
2023/06/12 10:29:46;;;;;;;;;;;27.60;34.60;;;;;;5054389;28;19954;-53
2023/06/12 10:32:14;;;;;;;;;;;27.70;34.90;;;;;;5061034;28;19912;-53
2023/06/12 10:34:40;;;;;;;;;;;27.70;33.60;;;;;;5054303;28;19913;-54
2023/06/12 10:37:25;;;;;;;;;;;27.70;34.10;;;;;;5093026;28;19967;-53
2023/06/12 10:40:20;;;;;;;;;;;27.80;34.10;;;;;;5071591;28;20373;-54
2023/06/12 10:42:51;;;;;;;;;;;27.80;35.20;;;;;;5060611;28;19941;-53
2023/06/12 10:45:23;;;;;;;;;;;27.80;34.10;;;;;;5069830;28;19917;-53
2023/06/12 10:47:58;;;;;;;;;;;27.80;34.50;;;;;;5069200;28;20314;-54
2023/06/12 10:50:27;;;;;;;;;;;27.90;34.10;;;;;;5056800;28;19932;-53
2023/06/12 10:52:54;;;;;;;;;;;27.90;33.50;;;;;;5071299;28;19917;-54
2023/06/12 10:55:20;;;;;;;;;;;27.90;33.60;;;;;;5071007;28;19924;-53
2023/06/12 10:57:52;;;;;;;;;;;27.90;34.20;;;;;;5062433;28;20372;-54
2023/06/12 11:00:18;;;;;;;;;;;28.00;35.30;;;;;;5062980;28;19913;-53
2023/06/12 11:02:44;;;;;;;;;;;28.00;33.60;;;;;;5071598;28;19923;-53
2023/06/12 11:05:10;;;;;;;;;;;28.00;32.70;;;;;;5054827;28;19912;-54
2023/06/12 11:07:35;;;;;;;;;;;28.00;33.50;;;;;;5074861;28;20065;-53
2023/06/12 11:10:10;;;;;;;;;;;28.00;33.80;;;;;;5056685;28;19913;-53
2023/06/12 11:12:36;;;;;;;;;;;28.00;34.00;;;;;;5053935;28;19921;-53
2023/06/12 11:15:01;;;;;;;;;;;28.00;32.50;;;;;;5053712;28;19911;-53
2023/06/12 11:17:30;;;;;;;;;;;27.90;32.50;;;;;;5053472;28;19913;-53
2023/06/12 11:19:59;;;;;;;;;;;27.90;32.50;;;;;;5056649;28;20692;-53
2023/06/12 11:22:24;;;;;;;;;;;28.00;32.90;;;;;;5057034;28;20405;-53
2023/06/12 11:24:50;;;;;;;;;;;28.00;32.90;;;;;;5056391;28;19913;-53
2023/06/12 11:27:15;;;;;;;;;;;28.00;32.30;;;;;;5100719;28;19912;-53
2023/06/12 11:29:41;;;;;;;;;;;28.10;33.90;;;;;;5073736;28;19944;-54
2023/06/12 11:32:07;;;;;;;;;;;28.10;33.20;;;;;;5069276;28;19921;-53
2023/06/12 11:34:34;;;;;;;;;;;28.20;33.60;;;;;;5052705;28;19912;-53
2023/06/12 11:37:10;;;;;;;;;;;28.10;31.30;;;;;;5053205;28;20380;-53
2023/06/12 11:39:35;;;;;;;;;;;28.20;32.20;;;;;;5052548;28;19913;-53
2023/06/12 11:42:01;;;;;;;;;;;28.20;31.90;;;;;;5055835;28;19957;-53
2023/06/12 11:44:27;;;;;;;;;;;28.30;32.60;;;;;;5072982;28;19931;-53
2023/06/12 11:46:52;;;;;;;;;;;28.30;32.60;;;;;;5072909;28;20057;-53
2023/06/12 11:49:20;;;;;;;;;;;28.30;33.30;;;;;;5066675;28;19910;-53
2023/06/12 11:51:45;;;;;;;;;;;28.30;31.30;;;;;;5085786;28;19912;-54
2023/06/12 11:54:11;;;;;;;;;;;28.30;32.00;;;;;;5056098;28;20379;-53
2023/06/12 11:56:39;;;;;;;;;;;28.40;32.10;;;;;;5086286;27;19917;-53
2023/06/12 11:59:05;;;;;;;;;;;28.40;31.10;;;;;;5067294;28;19919;-53
2023/06/12 12:01:32;;;;;;;;;;;28.40;31.80;;;;;;5069481;28;19912;-53
2023/06/12 12:03:58;;;;;;;;;;;28.40;31.50;;;;;;5102382;28;19913;-53
2023/06/12 12:06:23;;;;;;;;;;;28.50;32.50;;;;;;5070418;28;19916;-53
2023/06/12 12:08:53;;;;;;;;;;;28.40;31.50;;;;;;5061513;28;19987;-53
2023/06/12 12:11:19;;;;;;;;;;;28.40;31.20;;;;;;5050347;28;20008;-54
2023/06/12 12:13:48;;;;;;;;;;;28.40;32.20;;;;;;5067946;28;19913;-55
2023/06/12 12:16:14;;;;;;;;;;;28.40;32.90;;;;;;5056403;28;20381;-54
2023/06/12 12:18:41;;;;;;;;;;;28.40;31.90;;;;;;5071963;28;19958;-54
2023/06/12 12:21:12;;;;;;;;;;;28.40;31.00;;;;;;5056592;28;20266;-54
2023/06/12 12:23:38;;;;;;;;;;;28.50;31.20;;;;;;5071243;28;19912;-54
2023/06/12 12:26:03;;;;;;;;;;;28.60;31.20;;;;;;5058179;28;19962;-54
2023/06/12 12:28:29;;;;;;;;;;;28.60;32.30;;;;;;5056053;28;19917;-54
2023/06/12 12:30:54;;;;;;;;;;;28.60;31.40;;;;;;5064869;28;20004;-55
2023/06/12 12:33:20;;;;;;;;;;;28.60;31.40;;;;;;5059436;28;19924;-54
2023/06/12 12:35:45;;;;;;;;;;;28.60;31.50;;;;;;5052107;28;19916;-54
2023/06/12 12:38:11;;;;;;;;;;;28.60;31.00;;;;;;5052397;28;19909;-54
2023/06/12 12:40:36;;;;;;;;;;;28.60;30.50;;;;;;5052344;28;19912;-55
2023/06/12 12:43:02;;;;;;;;;;;28.60;30.80;;;;;;5051267;28;19921;-55
2023/06/12 12:45:28;;;;;;;;;;;28.70;31.80;;;;;;5062688;28;19913;-55
2023/06/12 12:47:53;;;;;;;;;;;28.70;30.70;;;;;;5068082;28;19924;-54
2023/06/12 12:50:19;;;;;;;;;;;28.70;31.90;;;;;;5064143;28;20018;-55
2023/06/12 12:52:45;;;;;;;;;;;28.70;31.40;;;;;;5067120;28;19923;-55
2023/06/12 12:55:11;;;;;;;;;;;28.70;31.70;;;;;;5070281;28;19920;-55
2023/06/12 12:57:38;;;;;;;;;;;28.70;30.90;;;;;;5072193;28;19920;-55
2023/06/12 13:00:10;;;;;;;;;;;28.70;30.50;;;;;;5061014;28;19939;-55
2023/06/12 13:02:36;;;;;;;;;;;28.80;30.60;;;;;;5087546;28;19917;-55
2023/06/12 13:05:02;;;;;;;;;;;28.80;31.60;;;;;;5049783;28;19936;-55
2023/06/12 13:07:29;;;;;;;;;;;28.80;30.30;;;;;;5064951;28;19952;-55
2023/06/12 13:09:55;;;;;;;;;;;28.70;32.20;;;;;;5069404;28;19923;-55
2023/06/12 13:12:20;;;;;;;;;;;28.70;30.90;;;;;;5068817;28;20292;-55
2023/06/12 13:14:46;;;;;;;;;;;28.70;31.40;;;;;;5068614;28;19916;-55
2023/06/12 13:17:12;;;;;;;;;;;28.80;31.20;;;;;;5059860;28;19913;-54
2023/06/12 13:19:37;;;;;;;;;;;28.80;31.20;;;;;;5051468;28;19909;-55
2023/06/12 13:22:03;;;;;;;;;;;28.90;31.40;;;;;;5065661;28;19939;-55
2023/06/12 13:24:28;;;;;;;;;;;28.90;31.00;;;;;;5052746;28;19920;-55
2023/06/12 13:26:54;;;;;;;;;;;28.90;30.70;;;;;;5069514;28;19912;-55
2023/06/12 13:29:19;;;;;;;;;;;28.90;30.30;;;;;;5059387;28;19942;-55
2023/06/12 13:31:45;;;;;;;;;;;28.90;30.90;;;;;;5066617;28;19916;-55
2023/06/12 13:34:11;;;;;;;;;;;28.90;31.10;;;;;;5053154;28;19916;-55
2023/06/12 13:36:36;;;;;;;;;;;28.90;30.80;;;;;;5051628;28;19913;-55
2023/06/12 13:39:02;;;;;;;;;;;28.90;30.60;;;;;;5063081;28;20006;-54
2023/06/12 13:41:28;;;;;;;;;;;28.90;30.90;;;;;;5068731;28;20032;-55
2023/06/12 13:43:53;;;;;;;;;;;28.90;31.90;;;;;;5064422;28;20076;-55
2023/06/12 13:46:19;;;;;;;;;;;28.90;31.20;;;;;;5051447;28;20297;-55
2023/06/12 13:48:44;;;;;;;;;;;28.90;31.30;;;;;;5069989;28;19909;-55
2023/06/12 13:51:10;;;;;;;;;;;29.00;31.50;;;;;;5062066;28;20011;-55
2023/06/12 13:53:36;;;;;;;;;;;29.00;31.50;;;;;;5084154;28;19964;-55
2023/06/12 13:56:02;;;;;;;;;;;29.00;32.00;;;;;;5067233;28;20281;-56
2023/06/12 13:58:28;;;;;;;;;;;28.90;31.10;;;;;;5069387;28;19928;-55
2023/06/12 14:00:53;;;;;;;;;;;28.70;29.70;;;;;;5063968;28;19923;-56
2023/06/12 14:03:19;;;;;;;;;;;28.70;28.90;;;;;;5059037;28;19963;-56
2023/06/12 14:05:45;;;;;;;;;;;28.70;29.00;;;;;;5062421;28;19913;-56
2023/06/12 14:08:10;;;;;;;;;;;28.50;28.80;;;;;;5059020;28;19920;-56
2023/06/12 14:10:39;;;;;;;;;;;28.10;28.70;;;;;;5061635;28;19921;-56
2023/06/12 14:13:04;;;;;;;;;;;28.10;28.70;;;;;;5061916;28;20377;-56